createdAt,value
2022-12-29T00:01:45.137Z,43.72
2022-12-29T00:04:15.751Z,45.03
2022-12-29T00:06:43.907Z,42.63
2022-12-29T00:09:13.596Z,42.55
2022-12-29T00:11:41.079Z,43.05
2022-12-29T00:14:28.383Z,42.47
2022-12-29T00:16:55.296Z,40.47
2022-12-29T00:19:40.627Z,42.75
2022-12-29T00:22:26.195Z,41.47
2022-12-29T00:24:55.916Z,41.85
2022-12-29T00:27:54.759Z,41.92
2022-12-29T00:30:41.889Z,44.75
2022-12-29T00:33:35.665Z,45.15
2022-12-29T00:36:08.071Z,43.45
2022-12-29T00:38:56.932Z,44.03
2022-12-29T00:41:42.401Z,43.17
2022-12-29T00:44:11.313Z,43.72
2022-12-29T00:46:40.483Z,44.28
2022-12-29T00:49:27.186Z,44.15
2022-12-29T00:51:55.323Z,45.13
2022-12-29T00:54:22.647Z,44.65
2022-12-29T00:56:51.100Z,44.33
2022-12-29T00:59:18.773Z,45.13
2022-12-29T01:01:46.446Z,44.17
2022-12-29T01:04:13.804Z,43.78
2022-12-29T01:06:42.152Z,41.60
2022-12-29T01:09:28.693Z,43.00
2022-12-29T01:11:56.449Z,43.53
2022-12-29T01:14:23.869Z,42.75
2022-12-29T01:16:51.133Z,43.80
2022-12-29T01:19:18.843Z,43.03
2022-12-29T01:21:46.177Z,44.22
2022-12-29T01:24:13.033Z,44.78
2022-12-29T01:26:39.801Z,41.92
2022-12-29T01:29:06.681Z,43.50
2022-12-29T01:31:34.194Z,41.55
2022-12-29T01:34:01.447Z,41.42
2022-12-29T01:36:28.332Z,41.88
2022-12-29T01:38:55.324Z,41.30
2022-12-29T01:41:23.095Z,43.72
2022-12-29T01:44:01.947Z,41.20
2022-12-29T01:46:48.845Z,42.70
2022-12-29T01:49:23.308Z,40.83
2022-12-29T01:51:54.781Z,42.72
2022-12-29T01:54:31.100Z,41.47
2022-12-29T01:57:02.529Z,43.05
2022-12-29T01:59:33.758Z,42.03
2022-12-29T02:02:01.572Z,42.13
2022-12-29T02:04:33.441Z,41.78
2022-12-29T02:07:12.564Z,41.63
2022-12-29T02:09:39.435Z,40.97
2022-12-29T02:12:06.301Z,43.10
2022-12-29T02:14:34.155Z,40.55
2022-12-29T02:17:33.362Z,43.60
2022-12-29T02:20:28.470Z,40.78
2022-12-29T02:23:25.153Z,42.30
2022-12-29T02:26:19.656Z,41.03
2022-12-29T02:29:10.491Z,41.90
2022-12-29T02:31:56.201Z,43.03
2022-12-29T02:34:50.824Z,42.92
2022-12-29T02:37:20.553Z,43.70
2022-12-29T02:40:03.535Z,44.47
2022-12-29T02:42:34.941Z,40.97
2022-12-29T02:45:13.646Z,41.33
2022-12-29T02:48:19.811Z,42.53
2022-12-29T02:50:57.813Z,42.28
2022-12-29T02:53:44.348Z,44.20
2022-12-29T02:56:11.028Z,42.10
2022-12-29T02:58:37.710Z,43.53
2022-12-29T03:01:32.028Z,43.58
2022-12-29T03:04:13.602Z,43.28
2022-12-29T03:07:13.984Z,42.88
2022-12-29T03:10:05.973Z,43.50
2022-12-29T03:13:12.956Z,40.85
2022-12-29T03:18:38.631Z,39.58
2022-12-29T03:21:17.653Z,40.30
2022-12-29T03:23:49.453Z,40.42
2022-12-29T03:26:19.520Z,41.05
2022-12-29T03:28:52.371Z,40.78
2022-12-29T03:31:21.125Z,41.20
2022-12-29T03:33:48.608Z,39.50
2022-12-29T03:36:27.744Z,39.28
2022-12-29T03:39:12.659Z,38.83
2022-12-29T03:41:43.496Z,39.95
2022-12-29T03:44:10.584Z,39.28
2022-12-29T03:46:37.294Z,39.72
2022-12-29T03:49:04.371Z,39.40
2022-12-29T03:51:31.086Z,37.13
2022-12-29T03:53:57.827Z,38.72
2022-12-29T03:56:24.873Z,38.08
2022-12-29T03:58:51.573Z,39.17
2022-12-29T04:01:19.564Z,35.42
2022-12-29T04:03:46.423Z,35.92
2022-12-29T04:06:13.236Z,35.33
2022-12-29T04:08:39.950Z,36.92
2022-12-29T04:11:06.811Z,36.28
2022-12-29T04:13:34.382Z,35.60
2022-12-29T04:16:01.119Z,36.38
2022-12-29T04:18:28.174Z,35.28
2022-12-29T04:21:00.571Z,35.95
2022-12-29T04:23:28.620Z,35.17
2022-12-29T04:25:55.379Z,34.78
2022-12-29T04:28:22.216Z,36.25
2022-12-29T04:30:49.103Z,35.95
2022-12-29T04:33:15.921Z,36.17
2022-12-29T04:35:45.137Z,35.42
2022-12-29T04:38:12.485Z,34.03
2022-12-29T04:40:41.011Z,34.60
2022-12-29T04:43:08.049Z,34.35
2022-12-29T04:45:34.814Z,34.60
2022-12-29T04:48:01.523Z,34.03
2022-12-29T04:50:28.274Z,34.20
2022-12-29T04:52:55.318Z,35.15
2022-12-29T04:55:22.126Z,35.78
2022-12-29T04:57:48.765Z,34.80
2022-12-29T05:00:15.833Z,36.83
2022-12-29T05:02:42.718Z,36.05
2022-12-29T05:05:10.360Z,35.70
2022-12-29T05:07:37.263Z,36.97
2022-12-29T05:10:05.250Z,35.63
2022-12-29T05:12:33.246Z,36.60
2022-12-29T05:15:00.770Z,34.88
2022-12-29T05:17:27.733Z,33.47
2022-12-29T05:19:54.463Z,35.45
2022-12-29T05:22:21.264Z,35.55
2022-12-29T05:24:48.000Z,35.60
2022-12-29T05:27:15.153Z,34.35
2022-12-29T05:29:41.856Z,35.50
2022-12-29T05:32:08.508Z,34.65
2022-12-29T05:34:35.308Z,32.83
2022-12-29T05:37:03.395Z,33.90
2022-12-29T05:39:30.433Z,33.92
2022-12-29T05:41:57.089Z,35.33
2022-12-29T05:44:24.045Z,35.50
2022-12-29T05:46:50.947Z,35.78
2022-12-29T05:49:18.279Z,34.55
2022-12-29T05:51:45.194Z,34.08
2022-12-29T05:54:11.905Z,34.00
2022-12-29T05:56:38.643Z,35.15
2022-12-29T05:59:05.369Z,35.38
2022-12-29T06:01:32.280Z,35.55
2022-12-29T06:03:59.070Z,36.30
2022-12-29T06:06:25.903Z,35.28
2022-12-29T06:08:53.094Z,37.08
2022-12-29T06:11:19.906Z,34.85
2022-12-29T06:13:46.584Z,36.25
2022-12-29T06:16:13.908Z,35.90
2022-12-29T06:18:40.701Z,37.72
2022-12-29T06:21:07.494Z,33.97
2022-12-29T06:23:34.381Z,35.58
2022-12-29T06:26:01.131Z,36.55
2022-12-29T06:28:27.891Z,34.95
2022-12-29T06:30:54.738Z,34.63
2022-12-29T06:33:22.011Z,36.88
2022-12-29T06:35:48.829Z,35.83
2022-12-29T06:38:15.652Z,37.42
2022-12-29T06:40:44.022Z,37.70
2022-12-29T06:43:10.828Z,36.67
2022-12-29T06:45:41.015Z,35.53
2022-12-29T06:48:08.785Z,35.13
2022-12-29T06:50:35.924Z,34.25
2022-12-29T06:53:02.743Z,34.72
2022-12-29T06:55:29.538Z,35.97
2022-12-29T06:57:57.639Z,35.03
2022-12-29T07:00:25.361Z,34.90
2022-12-29T07:02:52.370Z,36.35
2022-12-29T07:05:19.091Z,34.50
2022-12-29T07:07:45.832Z,35.38
2022-12-29T07:10:12.719Z,34.63
2022-12-29T07:12:39.401Z,36.30
2022-12-29T07:15:06.851Z,34.30
2022-12-29T07:17:33.836Z,35.90
2022-12-29T07:20:00.655Z,35.63
2022-12-29T07:22:27.705Z,36.05
2022-12-29T07:24:54.500Z,35.17
2022-12-29T07:27:21.338Z,35.88
2022-12-29T07:29:48.119Z,34.80
2022-12-29T07:32:15.148Z,36.22
2022-12-29T07:34:41.893Z,35.75
2022-12-29T07:37:08.629Z,34.78
2022-12-29T07:39:35.315Z,35.47
2022-12-29T07:42:05.062Z,35.53
2022-12-29T07:44:32.144Z,36.67
2022-12-29T07:46:59.290Z,34.17
2022-12-29T07:49:27.218Z,35.83
2022-12-29T07:51:53.956Z,35.55
2022-12-29T07:54:20.797Z,35.90
2022-12-29T07:56:47.857Z,35.08
2022-12-29T07:59:14.721Z,37.50
2022-12-29T08:01:41.638Z,35.95
2022-12-29T08:04:08.645Z,35.97
2022-12-29T08:06:35.555Z,36.33
2022-12-29T08:09:11.083Z,36.20
2022-12-29T08:11:39.646Z,35.70
2022-12-29T08:14:06.351Z,34.83
2022-12-29T08:16:33.762Z,38.33
2022-12-29T08:19:00.711Z,35.78
2022-12-29T08:21:29.169Z,35.97
2022-12-29T08:23:56.022Z,37.83
2022-12-29T08:26:23.313Z,36.35
2022-12-29T08:28:54.105Z,37.50
2022-12-29T08:31:20.975Z,38.50
2022-12-29T08:33:48.212Z,37.75
2022-12-29T08:36:15.280Z,36.25
2022-12-29T08:38:42.187Z,38.33
2022-12-29T08:41:09.101Z,37.20
2022-12-29T08:43:35.878Z,41.08
2022-12-29T08:46:02.897Z,41.20
2022-12-29T08:48:29.925Z,37.92
2022-12-29T08:50:56.815Z,39.55
2022-12-29T08:53:23.770Z,38.58
2022-12-29T08:56:02.351Z,37.70
2022-12-29T08:58:32.028Z,36.50
2022-12-29T09:00:59.816Z,35.60
2022-12-29T09:04:03.829Z,35.58
2022-12-29T09:06:16.033Z,35.30
2022-12-29T09:08:42.825Z,34.53
2022-12-29T09:11:15.716Z,34.88
2022-12-29T09:13:42.820Z,36.72
2022-12-29T09:16:09.920Z,36.20
2022-12-29T09:18:37.077Z,34.17
2022-12-29T09:21:06.168Z,34.53
2022-12-29T09:23:33.596Z,34.08
2022-12-29T09:26:00.535Z,33.25
2022-12-29T09:28:27.668Z,32.00
2022-12-29T09:30:54.508Z,31.95
2022-12-29T09:33:21.321Z,33.38
2022-12-29T09:35:57.018Z,34.03
2022-12-29T09:38:24.482Z,35.50
2022-12-29T09:40:53.999Z,35.90
2022-12-29T09:43:31.334Z,35.95
2022-12-29T09:46:21.975Z,36.95
2022-12-29T09:48:56.260Z,37.15
2022-12-29T09:51:25.089Z,39.40
2022-12-29T09:54:22.240Z,40.25
2022-12-29T09:56:49.917Z,41.03
2022-12-29T09:59:21.272Z,37.20
2022-12-29T10:01:54.997Z,36.80
2022-12-29T10:04:21.947Z,36.58
2022-12-29T10:10:03.587Z,36.15
2022-12-29T10:12:30.620Z,36.35
2022-12-29T10:15:27.986Z,38.15
2022-12-29T10:18:39.778Z,39.65
2022-12-29T10:21:42.661Z,40.13
2022-12-29T10:24:12.987Z,37.65
2022-12-29T10:26:44.939Z,39.20
2022-12-29T10:29:22.687Z,42.30
2022-12-29T10:31:59.044Z,44.35
2022-12-29T10:34:30.690Z,43.53
2022-12-29T10:37:18.944Z,46.22
2022-12-29T10:39:51.812Z,46.22
2022-12-29T10:42:54.859Z,44.17
2022-12-29T10:45:25.027Z,43.58
2022-12-29T10:48:01.569Z,44.67
2022-12-29T10:50:30.675Z,45.38
2022-12-29T10:53:01.454Z,45.08
2022-12-29T10:55:37.262Z,45.45
2022-12-29T10:58:07.803Z,42.47
2022-12-29T11:00:35.016Z,44.55
2022-12-29T11:03:25.500Z,41.75
2022-12-29T11:06:02.374Z,41.20
2022-12-29T11:08:37.067Z,42.42
2022-12-29T11:11:09.592Z,42.47
2022-12-29T11:13:57.093Z,42.65
2022-12-29T11:16:32.934Z,42.50
2022-12-29T11:19:00.457Z,42.40
2022-12-29T11:21:41.148Z,42.88
2022-12-29T11:24:20.272Z,42.60
2022-12-29T11:26:47.555Z,43.72
2022-12-29T11:29:17.298Z,43.53
2022-12-29T11:31:53.519Z,45.15
2022-12-29T11:34:36.666Z,43.53
2022-12-29T11:37:07.440Z,44.38
2022-12-29T11:39:39.732Z,43.05
2022-12-29T11:42:10.804Z,42.63
2022-12-29T11:44:43.581Z,44.00
2022-12-29T11:47:26.156Z,43.65
2022-12-29T11:49:57.211Z,42.78
2022-12-29T11:52:26.555Z,41.50
2022-12-29T11:54:56.259Z,42.15
2022-12-29T11:57:25.114Z,40.53
2022-12-29T11:59:57.028Z,40.85
2022-12-29T12:02:42.885Z,43.22
2022-12-29T12:07:45.374Z,40.58
2022-12-29T12:10:23.618Z,39.90
2022-12-29T12:12:57.241Z,40.55
2022-12-29T12:15:41.975Z,39.15
2022-12-29T12:18:30.255Z,37.90
2022-12-29T12:21:06.756Z,38.72
2022-12-29T12:23:39.834Z,37.30
2022-12-29T12:26:35.164Z,37.85
2022-12-29T12:29:42.196Z,36.85
2022-12-29T12:32:38.892Z,36.30
2022-12-29T12:35:06.024Z,38.15
2022-12-29T12:37:50.783Z,35.70
2022-12-29T12:40:36.718Z,35.67
2022-12-29T12:43:38.405Z,34.83
2022-12-29T12:46:26.422Z,34.95
2022-12-29T12:49:21.771Z,33.45
2022-12-29T12:52:13.210Z,33.35
2022-12-29T12:54:58.167Z,32.83
2022-12-29T12:57:59.310Z,33.90
2022-12-29T13:00:26.550Z,35.45
2022-12-29T13:03:20.744Z,34.35
2022-12-29T13:06:17.956Z,31.40
2022-12-29T13:08:50.481Z,31.60
2022-12-29T13:11:20.188Z,32.08
2022-12-29T13:14:08.297Z,30.75
2022-12-29T13:16:58.292Z,31.13
2022-12-29T13:19:45.994Z,30.27
2022-12-29T13:22:21.723Z,30.50
2022-12-29T13:25:07.923Z,31.38
2022-12-29T13:27:45.913Z,30.85
2022-12-29T13:30:21.524Z,32.30
2022-12-29T13:35:33.356Z,31.17
2022-12-29T13:38:22.234Z,32.28
2022-12-29T13:40:55.707Z,32.72
2022-12-29T13:43:24.610Z,31.88
2022-12-29T13:45:58.768Z,34.10
2022-12-29T13:48:43.505Z,34.65
2022-12-29T13:51:12.813Z,32.83
2022-12-29T13:53:43.893Z,33.13
2022-12-29T13:56:14.408Z,33.40
2022-12-29T13:59:10.337Z,33.00
2022-12-29T14:01:54.586Z,33.03
2022-12-29T14:04:30.845Z,30.75
2022-12-29T14:07:05.614Z,30.77
2022-12-29T14:09:53.907Z,30.77
2022-12-29T14:12:22.225Z,30.45
2022-12-29T14:14:49.296Z,32.38
2022-12-29T14:17:21.116Z,32.97
2022-12-29T14:19:52.535Z,32.42
2022-12-29T14:22:32.434Z,32.60
2022-12-29T14:25:00.208Z,32.88
2022-12-29T14:27:44.851Z,33.38
2022-12-29T14:30:48.533Z,32.63
2022-12-29T14:33:16.317Z,33.30
2022-12-29T14:35:46.866Z,31.23
2022-12-29T14:38:24.414Z,31.77
2022-12-29T14:40:52.528Z,27.90
2022-12-29T14:43:26.967Z,29.88
2022-12-29T14:45:57.836Z,30.00
2022-12-29T14:48:36.069Z,30.05
2022-12-29T14:51:03.255Z,30.85
2022-12-29T14:53:50.902Z,30.25
2022-12-29T14:56:21.136Z,29.88
2022-12-29T14:59:10.698Z,29.40
2022-12-29T15:01:50.907Z,29.83
2022-12-29T15:04:31.663Z,30.50
2022-12-29T15:06:59.459Z,31.17
2022-12-29T15:09:50.329Z,32.47
2022-12-29T15:12:28.496Z,29.33
2022-12-29T15:14:57.716Z,30.63
2022-12-29T15:17:26.018Z,29.05
2022-12-29T15:19:53.496Z,31.40
2022-12-29T15:22:20.617Z,30.38
2022-12-29T15:24:47.667Z,30.90
2022-12-29T15:27:16.587Z,30.90
2022-12-29T15:29:47.463Z,29.33
2022-12-29T15:32:16.898Z,29.50
2022-12-29T15:34:45.585Z,30.50
2022-12-29T15:37:24.932Z,31.35
2022-12-29T15:39:53.486Z,28.70
2022-12-29T15:42:45.963Z,29.92
2022-12-29T15:45:14.505Z,29.58
2022-12-29T15:47:44.472Z,30.52
2022-12-29T15:50:33.798Z,29.42
2022-12-29T15:53:01.381Z,30.25
2022-12-29T15:55:38.278Z,30.10
2022-12-29T15:58:16.364Z,35.13
2022-12-29T16:00:54.007Z,41.33
2022-12-29T16:03:22.296Z,33.20
2022-12-29T16:06:32.560Z,31.33
2022-12-29T16:09:03.539Z,30.83
2022-12-29T16:11:36.574Z,29.90
2022-12-29T16:14:15.728Z,30.27
2022-12-29T16:16:44.992Z,32.53
2022-12-29T16:19:22.529Z,31.35
2022-12-29T16:21:49.453Z,30.55
2022-12-29T16:24:19.749Z,32.90
2022-12-29T16:27:06.042Z,30.55
2022-12-29T16:29:33.255Z,30.85
2022-12-29T16:32:01.664Z,31.30
2022-12-29T16:34:32.868Z,30.10
2022-12-29T16:37:26.226Z,32.10
2022-12-29T16:39:52.990Z,33.50
2022-12-29T18:28:53.969Z,30.75
2022-12-29T18:31:26.526Z,32.70
2022-12-29T18:33:54.618Z,33.17
2022-12-29T18:36:22.692Z,32.85
2022-12-29T18:38:50.832Z,32.83
2022-12-29T18:41:29.840Z,33.25
2022-12-29T18:43:57.265Z,33.72
2022-12-29T18:46:24.165Z,34.83
2022-12-29T18:48:51.727Z,33.53
2022-12-29T18:51:24.353Z,33.38
2022-12-29T18:53:54.075Z,34.20
2022-12-29T18:56:22.558Z,36.45
2022-12-29T18:58:49.822Z,36.88
2022-12-29T19:01:20.704Z,35.22
2022-12-29T19:03:47.983Z,35.75
2022-12-29T19:06:14.819Z,35.65
2022-12-29T19:08:41.762Z,35.60
2022-12-29T19:11:08.630Z,36.38
2022-12-29T19:13:35.364Z,37.13
2022-12-29T19:16:02.596Z,36.33
2022-12-29T19:18:48.729Z,34.22
2022-12-29T19:21:16.493Z,35.45
2022-12-29T19:23:43.249Z,36.72
2022-12-29T19:26:28.330Z,37.20
2022-12-29T19:28:55.127Z,35.38
2022-12-29T19:31:22.203Z,36.75
2022-12-29T19:33:49.035Z,38.45
2022-12-29T19:36:16.921Z,36.10
2022-12-29T19:38:45.140Z,36.00
2022-12-29T19:41:12.813Z,34.58
2022-12-29T19:43:39.714Z,34.47
2022-12-29T19:46:11.574Z,35.55
2022-12-29T19:48:38.387Z,34.55
2022-12-29T19:51:10.614Z,33.13
2022-12-29T19:53:37.831Z,34.85
2022-12-29T19:56:07.778Z,35.28
2022-12-29T19:58:35.947Z,33.33
2022-12-29T20:01:15.312Z,33.78
2022-12-29T20:03:42.546Z,34.88
2022-12-29T20:06:10.605Z,35.15
2022-12-29T20:08:38.252Z,34.92
2022-12-29T20:11:13.054Z,36.15
2022-12-29T20:13:41.040Z,34.63
2022-12-29T20:16:13.121Z,34.13
2022-12-29T20:18:40.145Z,35.50
2022-12-29T20:21:19.598Z,36.85
2022-12-29T20:23:47.211Z,35.72
2022-12-29T20:26:22.602Z,37.35
2022-12-29T20:28:50.178Z,34.78
2022-12-29T20:31:25.271Z,36.30
2022-12-29T20:33:52.302Z,35.22
2022-12-29T20:36:23.800Z,34.15
2022-12-29T20:38:52.222Z,36.17
2022-12-29T20:41:19.407Z,35.80
2022-12-29T20:43:46.100Z,35.53
2022-12-29T20:46:18.091Z,35.58
2022-12-29T20:48:47.372Z,37.45
2022-12-29T20:51:14.060Z,37.58
2022-12-29T20:53:41.189Z,35.53
2022-12-29T20:56:13.571Z,34.97
2022-12-29T20:59:00.205Z,36.17
2022-12-29T21:01:27.437Z,35.47
2022-12-29T21:03:54.386Z,36.90
2022-12-29T21:06:21.501Z,37.88
2022-12-29T21:08:50.263Z,36.50
2022-12-29T21:11:17.936Z,37.55
2022-12-29T21:13:45.130Z,38.83
2022-12-29T21:16:14.244Z,38.17
2022-12-29T21:18:41.373Z,38.30
2022-12-29T21:21:13.714Z,38.55
2022-12-29T21:23:40.776Z,39.58
2022-12-29T21:26:13.136Z,37.30
2022-12-29T21:28:41.537Z,37.33
2022-12-29T21:31:33.496Z,40.63
2022-12-29T21:34:01.132Z,39.05
2022-12-29T21:36:28.695Z,39.13
2022-12-29T21:38:56.333Z,39.72
2022-12-29T21:41:23.127Z,39.20
2022-12-29T21:44:08.370Z,39.42
2022-12-29T21:46:37.472Z,37.53
2022-12-29T21:49:05.569Z,37.00
2022-12-29T21:51:50.455Z,39.10
2022-12-29T21:54:53.354Z,37.85
2022-12-29T21:57:38.987Z,36.47
2022-12-29T22:00:27.573Z,40.10
2022-12-29T22:03:21.977Z,39.25
2022-12-29T22:06:09.043Z,41.93
2022-12-29T22:08:54.657Z,41.08
2022-12-29T22:11:40.112Z,42.50
2022-12-29T22:14:06.999Z,41.28
2022-12-29T22:16:34.139Z,41.63
2022-12-29T22:19:01.200Z,40.92
2022-12-29T22:21:28.283Z,39.90
2022-12-29T22:23:55.013Z,41.42
2022-12-29T22:26:21.811Z,39.90
2022-12-29T22:28:50.757Z,41.42
2022-12-29T22:31:27.692Z,38.85
2022-12-29T22:33:57.076Z,41.00
2022-12-29T22:36:26.577Z,38.85
2022-12-29T22:38:53.456Z,39.97
2022-12-29T22:41:20.607Z,38.17
2022-12-29T22:43:47.296Z,38.80
2022-12-29T22:46:14.175Z,37.50
2022-12-29T22:48:41.475Z,36.53
2022-12-29T22:51:08.289Z,35.05
2022-12-29T22:53:35.114Z,36.20
2022-12-29T22:56:03.792Z,34.92
2022-12-29T22:58:30.500Z,33.78
2022-12-29T23:00:57.327Z,32.67
2022-12-29T23:03:24.459Z,29.40
2022-12-29T23:06:02.228Z,26.30
2022-12-29T23:08:32.284Z,22.88
2022-12-29T23:10:59.145Z,19.13
2022-12-29T23:13:26.018Z,18.55
2022-12-29T23:15:53.205Z,18.70
2022-12-29T23:18:19.980Z,17.88
2022-12-29T23:20:49.002Z,17.80
2022-12-29T23:23:44.837Z,17.70
2022-12-29T23:26:15.594Z,18.00
2022-12-29T23:28:42.722Z,18.50
2022-12-29T23:31:09.848Z,20.30
2022-12-29T23:33:36.925Z,21.05
2022-12-29T23:36:04.238Z,20.13
2022-12-29T23:38:30.996Z,20.20
2022-12-29T23:40:57.675Z,21.08
2022-12-29T23:43:24.591Z,20.02
2022-12-29T23:45:51.660Z,17.92
2022-12-29T23:48:19.137Z,17.20
2022-12-29T23:50:46.634Z,17.88
2022-12-29T23:53:13.785Z,17.55
2022-12-29T23:55:44.123Z,16.23
2022-12-29T23:58:10.972Z,17.35
